Time;durP1;ratioP1;P1;durP2;ratioP2;P2;SDS_P1;SDS_P2;PMS_P1;PMS_P2;Temp;Humidity;BMP_temperature;BMP_pressure;BME280_temperature;BME280_humidity;BME280_pressure;Samples;Min_cycle;Max_cycle;Signal;HPM_P1;HPM_P2
2021/05/05 00:01:17;;;;;;;10.10;4.20;;;;;;;11.61;51.61;100308.58;125590;1099;104162;-76
2021/05/05 00:03:45;;;;;;;7.03;3.90;;;;;;;11.59;52.15;100312.88;125637;1099;104290;-76
2021/05/05 00:06:16;;;;;;;8.13;3.90;;;;;;;11.59;52.15;100328.64;125659;1099;104342;-76
2021/05/05 00:08:44;;;;;;;7.90;4.20;;;;;;;11.57;52.14;100322.46;125646;1099;104354;-76
2021/05/05 00:11:16;;;;;;;7.20;3.83;;;;;;;11.57;52.47;100324.20;125608;1096;104245;-75
2021/05/05 00:13:48;;;;;;;7.43;3.97;;;;;;;11.54;52.41;100327.63;125619;1099;104162;-76
2021/05/05 00:16:15;;;;;;;9.77;4.43;;;;;;;11.52;52.71;100326.70;125620;1097;104166;-76
2021/05/05 00:18:44;;;;;;;9.50;4.10;;;;;;;11.50;53.11;100323.16;125663;1098;104178;-76
2021/05/05 00:21:16;;;;;;;7.63;4.43;;;;;;;11.48;52.86;100319.56;125621;1099;104631;-76
2021/05/05 00:23:44;;;;;;;8.90;4.27;;;;;;;11.43;53.42;100318.55;125638;1099;104894;-76
2021/05/05 00:26:12;;;;;;;9.97;4.07;;;;;;;11.39;53.92;100308.79;125677;1099;104293;-76
2021/05/05 00:28:40;;;;;;;7.57;3.60;;;;;;;11.37;54.63;100305.23;125621;1099;104255;-76
2021/05/05 00:31:08;;;;;;;9.63;4.10;;;;;;;11.34;54.02;100303.40;125640;1099;104175;-76
2021/05/05 00:33:36;;;;;;;8.87;3.93;;;;;;;11.33;53.90;100302.52;125539;1099;104360;-75
2021/05/05 00:36:07;;;;;;;11.23;4.37;;;;;;;11.33;53.73;100302.52;125636;1099;104322;-76
2021/05/05 00:38:35;;;;;;;8.97;4.13;;;;;;;11.32;53.81;100305.09;125649;1099;104160;-76
2021/05/05 00:41:09;;;;;;;10.53;4.30;;;;;;;11.30;54.13;100298.92;125609;1099;104210;-75
2021/05/05 00:43:38;;;;;;;9.03;4.73;;;;;;;11.30;54.17;100304.17;125694;1098;104163;-76
2021/05/05 00:46:10;;;;;;;9.75;3.90;;;;;;;11.27;54.45;100297.08;125650;1099;104163;-75
2021/05/05 00:48:40;;;;;;;8.40;3.63;;;;;;;11.26;55.73;100291.78;125636;1099;104347;-76
2021/05/05 00:51:08;;;;;;;6.57;3.90;;;;;;;11.26;54.59;100302.29;125637;1099;104184;-76
2021/05/05 00:53:40;;;;;;;8.87;4.23;;;;;;;11.26;54.72;100297.03;125593;1099;104168;-76
2021/05/05 00:56:09;;;;;;;12.13;4.17;;;;;;;11.24;55.19;100299.62;125624;1099;104296;-76
2021/05/05 00:58:37;;;;;;;9.80;4.40;;;;;;;11.22;55.00;100295.16;125595;1099;104169;-76
2021/05/05 01:01:05;;;;;;;10.27;4.33;;;;;;;11.22;54.92;100297.78;125550;1099;104339;-76
2021/05/05 01:03:34;;;;;;;7.27;4.20;;;;;;;11.23;54.83;100304.83;125606;1099;104341;-75
2021/05/05 01:06:05;;;;;;;9.40;4.30;;;;;;;11.24;55.67;100298.73;125630;1099;104214;-76
2021/05/05 01:08:34;;;;;;;11.70;4.00;;;;;;;11.24;55.57;100301.36;125670;1099;104191;-75
2021/05/05 01:11:04;;;;;;;7.30;4.30;;;;;;;11.22;55.78;100295.16;125617;1099;104213;-76
2021/05/05 01:13:33;;;;;;;12.65;4.50;;;;;;;11.23;55.41;100296.94;125651;1099;104178;-76
2021/05/05 01:16:02;;;;;;;6.50;3.73;;;;;;;11.23;56.06;100286.44;125674;1098;104203;-75
2021/05/05 01:18:30;;;;;;;9.27;4.40;;;;;;;11.19;55.90;100288.09;125633;1099;105277;-75
2021/05/05 01:21:00;;;;;;;6.80;3.97;;;;;;;11.18;56.41;100288.05;125636;1098;104246;-76
2021/05/05 01:23:30;;;;;;;9.67;3.70;;;;;;;11.17;55.84;100289.77;125632;1099;117882;-75
2021/05/05 01:25:58;;;;;;;7.70;4.00;;;;;;;11.18;56.25;100280.17;125659;1097;104201;-76
2021/05/05 01:28:27;;;;;;;7.37;4.13;;;;;;;11.18;56.39;100288.05;125668;1099;104178;-76
2021/05/05 01:30:56;;;;;;;9.27;4.20;;;;;;;11.18;56.60;100282.80;125645;1098;104168;-76
2021/05/05 01:33:24;;;;;;;8.10;4.43;;;;;;;11.17;56.51;100283.63;125649;1099;104294;-76
2021/05/05 01:35:52;;;;;;;7.07;3.93;;;;;;;11.16;56.60;100282.75;125635;1099;105091;-75
2021/05/05 01:38:22;;;;;;;10.90;4.43;;;;;;;11.15;56.41;100279.21;125626;1099;104179;-76
2021/05/05 01:40:52;;;;;;;8.23;4.30;;;;;;;11.17;56.25;100281.00;125668;1099;104241;-75
2021/05/05 01:43:20;;;;;;;6.47;3.87;;;;;;;11.17;56.37;100276.62;125635;1099;104270;-75
2021/05/05 01:45:49;;;;;;;6.60;4.05;;;;;;;11.20;56.85;100275.84;125637;1099;104165;-75
2021/05/05 01:48:19;;;;;;;8.20;3.83;;;;;;;11.23;56.57;100275.94;125644;1099;104247;-76
2021/05/05 01:50:47;;;;;;;8.60;3.60;;;;;;;11.23;56.35;100273.30;125673;1099;104171;-75
2021/05/05 01:53:16;;;;;;;10.90;4.10;;;;;;;11.20;56.85;100271.47;125643;1099;104294;-76
2021/05/05 01:55:46;;;;;;;7.37;4.27;;;;;;;11.17;57.08;100276.62;125663;1098;104197;-76
2021/05/05 01:58:15;;;;;;;9.07;4.30;;;;;;;11.12;56.84;100273.87;125670;1097;104175;-76
2021/05/05 02:00:43;;;;;;;10.57;4.17;;;;;;;11.12;56.76;100275.61;125664;1097;104204;-76
2021/05/05 02:03:12;;;;;;;6.90;4.30;;;;;;;11.08;56.90;100272.02;125572;1099;104331;-75
2021/05/05 02:05:53;;;;;;;10.67;4.20;;;;;;;11.01;57.06;100262.16;125688;1099;104367;-76
2021/05/05 02:08:28;;;;;;;6.90;3.93;;;;;;;10.96;57.42;100261.14;125644;1099;104185;-75
2021/05/05 02:10:56;;;;;;;8.67;4.10;;;;;;;10.95;57.49;100256.72;125726;1099;104168;-76
2021/05/05 02:13:25;;;;;;;7.07;4.10;;;;;;;10.94;57.37;100258.47;125646;1099;104269;-76
2021/05/05 02:15:55;;;;;;;8.90;4.33;;;;;;;10.94;57.48;100262.84;125612;1099;104186;-76
2021/05/05 02:18:26;;;;;;;10.60;5.10;;;;;;;10.89;57.43;100256.53;125630;1099;104192;-75
2021/05/05 02:20:55;;;;;;;6.67;4.00;;;;;;;10.87;57.71;100255.61;125672;1099;104193;-75
2021/05/05 02:23:23;;;;;;;10.07;4.40;;;;;;;10.85;57.36;100265.19;125581;1099;104268;-76
2021/05/05 02:25:52;;;;;;;11.43;4.33;;;;;;;10.83;57.48;100259.89;125704;1098;104165;-76
2021/05/05 02:28:20;;;;;;;7.47;4.00;;;;;;;10.84;57.81;100266.89;125617;1099;104281;-76
2021/05/05 02:31:08;;;;;;;9.90;4.30;;;;;;;10.86;58.06;100264.31;125645;1099;104175;-75
2021/05/05 02:33:37;;;;;;;10.80;4.20;;;;;;;10.89;57.79;100260.08;125580;1099;104241;-75
2021/05/05 02:36:07;;;;;;;9.97;4.07;;;;;;;10.92;57.78;100267.13;125633;1099;104232;-75
2021/05/05 02:38:36;;;;;;;9.30;4.23;;;;;;;10.92;58.03;100262.80;125590;1099;104242;-76
2021/05/05 02:41:06;;;;;;;8.17;4.17;;;;;;;10.94;58.34;100263.72;125634;1099;104207;-75
2021/05/05 02:43:34;;;;;;;8.07;4.20;;;;;;;10.94;58.26;100263.72;125663;1099;104300;-76
2021/05/05 02:46:02;;;;;;;8.30;4.50;;;;;;;10.93;58.44;100255.80;125628;1099;104165;-75
2021/05/05 02:48:30;;;;;;;9.87;4.13;;;;;;;10.93;58.44;100250.55;125626;1099;104253;-76
2021/05/05 02:51:00;;;;;;;7.87;4.50;;;;;;;10.91;58.40;100249.63;125616;1099;104412;-75
2021/05/05 02:53:28;;;;;;;10.10;4.60;;;;;;;10.88;58.28;100253.03;125628;1099;104347;-76
2021/05/05 02:55:56;;;;;;;10.47;4.33;;;;;;;10.88;58.54;100246.91;125631;1099;104178;-76
2021/05/05 02:58:24;;;;;;;5.97;4.07;;;;;;;10.87;58.27;100243.36;125584;1099;102410;-75
2021/05/05 03:00:52;;;;;;;10.63;4.63;;;;;;;10.89;59.03;100243.41;125642;1099;104207;-75
2021/05/05 03:03:20;;;;;;;11.43;4.73;;;;;;;10.85;58.72;100244.19;125581;1099;104226;-76
2021/05/05 03:05:47;;;;;;;8.40;3.97;;;;;;;10.87;58.97;100245.11;125600;1097;104457;-76
2021/05/05 03:08:17;;;;;;;16.70;4.67;;;;;;;10.87;59.03;100256.49;125675;1096;104298;-75
2021/05/05 03:10:45;;;;;;;14.43;4.57;;;;;;;10.86;59.05;100259.98;125659;1099;104165;-76
2021/05/05 03:13:14;;;;;;;10.80;4.83;;;;;;;10.85;58.85;100252.06;125599;1099;104153;-76
2021/05/05 03:15:42;;;;;;;10.83;4.43;;;;;;;10.84;59.17;100256.39;125633;1099;117750;-75
2021/05/05 03:18:10;;;;;;;14.03;5.10;;;;;;;10.84;58.97;100252.89;125616;1099;104291;-75
2021/05/05 03:20:38;;;;;;;11.43;5.37;;;;;;;10.79;58.85;100258.88;125663;1097;104178;-76
2021/05/05 03:23:06;;;;;;;14.60;5.07;;;;;;;10.82;59.32;100252.84;125637;1099;104166;-76
2021/05/05 03:25:33;;;;;;;9.20;4.40;;;;;;;10.86;59.03;100251.19;125635;1099;104280;-76
2021/05/05 03:28:01;;;;;;;11.33;4.57;;;;;;;10.90;58.92;100247.83;125637;1098;104344;-76
2021/05/05 03:30:29;;;;;;;10.57;4.80;;;;;;;10.97;58.95;100245.44;125621;1099;104198;-76
2021/05/05 03:32:57;;;;;;;11.70;4.70;;;;;;;11.04;59.50;100243.87;125640;1099;104301;-75
2021/05/05 03:35:26;;;;;;;13.00;5.10;;;;;;;11.11;59.41;100240.59;125652;1099;104294;-76
2021/05/05 03:37:54;;;;;;;10.50;4.47;;;;;;;11.17;59.12;100241.61;125658;1099;104300;-75
2021/05/05 03:40:22;;;;;;;8.20;4.43;;;;;;;11.23;59.15;100242.67;125655;1099;104338;-76
2021/05/05 03:42:50;;;;;;;8.47;4.40;;;;;;;11.27;59.35;100236.67;125644;1099;104702;-76
2021/05/05 03:45:18;;;;;;;13.90;4.87;;;;;;;11.35;59.39;100239.52;125653;1099;104153;-76
2021/05/05 03:47:46;;;;;;;10.80;4.47;;;;;;;11.42;59.41;100236.23;125655;1099;104252;-75
2021/05/05 03:50:15;;;;;;;10.77;4.53;;;;;;;11.48;59.60;100232.86;125636;1099;104208;-76
2021/05/05 03:52:43;;;;;;;11.23;4.20;;;;;;;11.54;59.51;100235.66;125657;1099;104188;-75
2021/05/05 03:55:13;;;;;;;11.37;4.00;;;;;;;11.63;59.45;100235.91;125597;1099;104358;-76
2021/05/05 03:57:41;;;;;;;8.83;3.90;;;;;;;11.71;59.43;100225.61;125708;1099;104171;-76
2021/05/05 04:00:10;;;;;;;9.53;4.10;;;;;;;11.78;59.36;100227.56;125696;1098;104172;-76
2021/05/05 04:02:43;;;;;;;7.27;4.17;;;;;;;11.85;59.31;100218.08;125642;1097;104274;-76
2021/05/05 04:05:13;;;;;;;6.83;3.67;;;;;;;11.88;59.28;100216.41;125629;1099;104570;-76
2021/05/05 04:07:41;;;;;;;13.03;4.40;;;;;;;11.93;59.19;100208.67;125671;1099;104297;-76
2021/05/05 04:10:10;;;;;;;12.00;4.87;;;;;;;11.98;59.41;100211.42;125632;1099;104188;-75
2021/05/05 04:12:40;;;;;;;12.17;5.00;;;;;;;12.03;59.48;100209.82;125698;1099;104213;-76
2021/05/05 04:15:09;;;;;;;20.53;5.87;;;;;;;12.05;59.33;100208.11;125640;1099;104156;-75
2021/05/05 04:17:37;;;;;;;15.00;5.37;;;;;;;12.10;59.53;100206.48;125716;1098;104277;-76
2021/05/05 04:20:07;;;;;;;15.70;5.27;;;;;;;12.17;59.49;100218.94;125639;1099;104213;-76
2021/05/05 04:22:35;;;;;;;10.80;4.97;;;;;;;12.25;59.36;100223.48;125656;1098;104195;-77
2021/05/05 04:25:09;;;;;;;7.97;4.20;;;;;;;12.31;59.26;100236.78;125633;1099;104171;-75
2021/05/05 04:27:38;;;;;;;8.40;4.00;;;;;;;12.37;59.36;100231.67;125705;1099;104313;-76
2021/05/05 04:30:08;;;;;;;7.70;3.93;;;;;;;12.45;59.14;100223.96;125684;1099;104171;-76
2021/05/05 04:32:36;;;;;;;8.67;4.30;;;;;;;12.51;59.23;100229.37;125603;1099;104373;-76
2021/05/05 04:35:11;;;;;;;6.63;3.53;;;;;;;12.59;59.18;100233.09;125599;1098;104232;-76
2021/05/05 04:37:40;;;;;;;8.90;4.03;;;;;;;12.68;59.06;100242.92;125650;1099;104184;-77
2021/05/05 04:40:09;;;;;;;6.60;3.57;;;;;;;12.75;59.02;100236.95;125613;1099;104318;-77
2021/05/05 04:42:37;;;;;;;10.17;3.67;;;;;;;12.80;58.87;100231.80;125664;1099;104168;-76
2021/05/05 04:45:08;;;;;;;10.37;4.23;;;;;;;12.86;58.73;100227.55;125606;1099;104296;-76
2021/05/05 04:47:36;;;;;;;7.63;3.73;;;;;;;12.94;58.96;100230.34;125624;1099;104195;-76
2021/05/05 04:50:07;;;;;;;4.77;3.40;;;;;;;13.01;58.67;100239.26;125619;1099;104242;-77
2021/05/05 04:52:35;;;;;;;5.97;3.70;;;;;;;13.05;58.82;100233.21;125683;1099;104184;-76
2021/05/05 04:55:05;;;;;;;5.57;3.40;;;;;;;13.14;58.68;100238.68;125668;1097;104354;-76
2021/05/05 04:57:34;;;;;;;6.63;3.57;;;;;;;13.21;58.54;100235.30;125582;1099;108961;-76
2021/05/05 05:00:07;;;;;;;11.30;3.57;;;;;;;13.28;58.14;100224.03;125675;1099;104306;-76
2021/05/05 05:02:39;;;;;;;9.47;3.60;;;;;;;13.38;58.71;100221.62;125562;1099;104217;-76
2021/05/05 05:05:10;;;;;;;7.17;3.83;;;;;;;13.48;58.75;100218.31;125599;1099;104245;-75
2021/05/05 05:07:38;;;;;;;7.70;3.10;;;;;;;13.58;57.65;100220.25;125595;1099;104235;-75
2021/05/05 05:10:08;;;;;;;6.33;3.40;;;;;;;13.67;57.90;100216.91;125576;1099;104169;-75
2021/05/05 05:12:38;;;;;;;4.87;3.10;;;;;;;13.77;58.13;100207.41;125611;1099;104195;-75
2021/05/05 05:15:10;;;;;;;8.47;3.13;;;;;;;13.87;57.84;100206.73;125584;1098;104159;-75
2021/05/05 05:17:38;;;;;;;7.20;3.00;;;;;;;13.97;57.72;100208.64;125627;1099;104169;-75
2021/05/05 05:20:09;;;;;;;6.07;3.20;;;;;;;14.08;57.54;100200.03;125629;1099;104621;-74
2021/05/05 05:22:37;;;;;;;5.83;2.93;;;;;;;14.22;57.09;100194.98;125617;1099;104287;-77
2021/05/05 05:25:09;;;;;;;4.87;2.70;;;;;;;14.33;56.65;100194.27;125634;1098;104176;-75
2021/05/05 05:27:37;;;;;;;7.77;3.07;;;;;;;14.45;56.76;100190.94;125614;1099;104185;-75
2021/05/05 05:30:07;;;;;;;6.25;3.00;;;;;;;14.55;56.03;100177.02;125642;1098;104172;-75
2021/05/05 05:32:36;;;;;;;8.10;2.90;;;;;;;14.66;55.86;100179.85;125620;1099;104258;-75
2021/05/05 05:35:05;;;;;;;5.20;3.03;;;;;;;14.78;55.78;100183.52;125596;1099;104169;-75
2021/05/05 05:37:33;;;;;;;3.83;2.60;;;;;;;14.91;56.09;100190.72;125603;1098;104185;-76
2021/05/05 05:40:01;;;;;;;6.03;2.67;;;;;;;15.01;55.07;100189.11;125631;1099;104173;-75
2021/05/05 05:42:29;;;;;;;3.30;2.40;;;;;;;15.12;55.41;100199.81;125588;1099;104329;-77
2021/05/05 05:44:58;;;;;;;5.90;2.60;;;;;;;15.24;55.78;100184.11;125597;1099;104165;-74
2021/05/05 05:47:26;;;;;;;6.03;2.53;;;;;;;15.35;55.52;100190.39;125594;1099;104238;-75
2021/05/05 05:50:02;;;;;;;5.93;2.63;;;;;;;15.48;55.64;100193.17;125608;1099;104171;-75
2021/05/05 05:52:30;;;;;;;5.03;2.37;;;;;;;15.59;54.72;100191.52;125642;1097;104147;-75
2021/05/05 05:54:58;;;;;;;3.20;2.50;;;;;;;15.66;52.55;100193.36;125653;1099;104171;-77
2021/05/05 05:57:27;;;;;;;4.20;2.40;;;;;;;15.69;54.42;100198.69;125623;1099;104175;-75
2021/05/05 05:59:55;;;;;;;9.23;2.53;;;;;;;15.73;53.06;100179.30;125595;1099;104242;-75
2021/05/05 06:02:23;;;;;;;7.10;2.80;;;;;;;15.78;54.00;100182.94;125589;1099;104290;-75
2021/05/05 06:04:53;;;;;;;4.77;2.30;;;;;;;15.84;53.41;100187.38;125634;1099;104418;-76
2021/05/05 06:07:21;;;;;;;6.93;2.43;;;;;;;15.89;53.68;100180.36;125643;1099;104300;-76
2021/05/05 06:09:51;;;;;;;9.13;2.93;;;;;;;15.96;53.12;100189.27;125553;1099;104238;-77
2021/05/05 06:12:20;;;;;;;2.77;2.23;;;;;;;16.07;53.24;100178.77;125466;1099;104335;-75
2021/05/05 06:14:49;;;;;;;6.50;2.70;;;;;;;16.13;51.82;100174.41;125538;1099;104195;-76
2021/05/05 06:17:21;;;;;;;5.73;2.37;;;;;;;16.18;52.58;100182.38;125470;1099;105493;-76
2021/05/05 06:19:51;;;;;;;10.50;3.50;;;;;;;16.25;52.83;100188.59;125522;1099;104223;-77
2021/05/05 06:22:20;;;;;;;6.87;2.50;;;;;;;16.35;52.66;100193.97;125550;1099;104290;-76
2021/05/05 06:24:48;;;;;;;7.33;2.40;;;;;;;16.44;51.07;100192.25;125484;1099;104255;-77
2021/05/05 06:27:17;;;;;;;7.67;2.30;;;;;;;16.55;52.26;100193.23;125554;1099;104713;-77
2021/05/05 06:29:47;;;;;;;7.37;2.30;;;;;;;16.68;51.28;100196.84;125536;1099;105668;-76
2021/05/05 06:32:17;;;;;;;7.30;2.40;;;;;;;16.76;51.63;100189.81;125545;1098;104772;-76
2021/05/05 06:34:46;;;;;;;4.87;2.43;;;;;;;16.85;51.32;100184.56;125539;1099;104273;-75
2021/05/05 06:37:14;;;;;;;9.57;2.53;;;;;;;16.97;50.96;100188.17;125459;1099;104178;-77
2021/05/05 06:39:43;;;;;;;7.43;2.90;;;;;;;17.07;50.72;100192.65;125526;1099;104191;-76
2021/05/05 06:42:12;;;;;;;2.87;2.20;;;;;;;17.18;50.09;100184.73;125578;1098;104226;-74
2021/05/05 06:44:42;;;;;;;3.90;2.40;;;;;;;17.34;49.57;100178.63;125560;1099;104322;-74
2021/05/05 06:47:11;;;;;;;6.33;2.30;;;;;;;17.52;49.97;100171.58;125478;1099;104152;-74
2021/05/05 06:49:39;;;;;;;3.10;1.97;;;;;;;17.68;49.34;100172.48;125456;1099;104207;-75
2021/05/05 06:52:09;;;;;;;6.27;2.40;;;;;;;17.79;49.19;100178.68;125544;1099;104159;-75
2021/05/05 06:54:41;;;;;;;4.53;2.27;;;;;;;18.01;49.16;100173.42;125537;1099;105295;-77
2021/05/05 06:57:09;;;;;;;4.93;2.27;;;;;;;18.27;48.49;100168.10;125527;1099;104162;-75
2021/05/05 07:00:04;;;;;;;5.00;2.30;;;;;;;18.43;47.70;100163.64;125472;1099;104766;-76
2021/05/05 07:02:36;;;;;;;3.17;2.37;;;;;;;18.49;47.81;100155.66;125420;1099;104323;-75
2021/05/05 07:05:05;;;;;;;4.43;1.93;;;;;;;18.64;47.15;100160.06;125473;1099;104155;-75
2021/05/05 07:07:33;;;;;;;3.23;1.53;;;;;;;18.84;47.69;100144.06;124868;1099;104187;-75
2021/05/05 07:10:03;;;;;;;7.50;2.07;;;;;;;19.05;47.06;100156.39;124931;1102;104187;-75
2021/05/05 07:12:31;;;;;;;4.00;2.03;;;;;;;19.21;47.51;100157.20;124879;1102;104671;-75
2021/05/05 07:15:07;;;;;;;6.95;2.45;;;;;;;19.30;47.17;100154.48;124818;1102;104198;-74
2021/05/05 07:17:35;;;;;;;10.70;1.93;;;;;;;19.39;46.85;100149.11;124891;1102;104271;-75
2021/05/05 07:20:05;;;;;;;4.57;2.10;;;;;;;19.43;46.52;100157.08;124875;1100;104168;-75
2021/05/05 07:22:37;;;;;;;5.40;2.10;;;;;;;19.44;46.04;100164.18;124981;1102;104245;-76
2021/05/05 07:25:07;;;;;;;4.27;1.87;;;;;;;19.53;44.66;100159.67;124908;1102;104347;-74
2021/05/05 07:27:39;;;;;;;6.10;2.23;;;;;;;19.60;44.55;100160.51;124891;1099;104226;-75
2021/05/05 07:30:13;;;;;;;6.77;1.80;;;;;;;19.65;42.14;100131.20;124899;1102;104271;-75
2021/05/05 07:35:40;;;;;;;5.27;2.30;;;;;;;20.15;42.90;100153.02;124837;1102;104200;-76
2021/05/05 07:46:25;;;;;;;4.53;2.20;;;;;;;20.18;42.24;100142.33;125528;1099;104171;-73
2021/05/05 07:49:07;;;;;;;4.40;2.10;;;;;;;20.16;42.38;100157.45;125543;1099;104201;-74
2021/05/05 07:51:42;;;;;;;4.57;2.17;;;;;;;20.10;42.23;100140.64;125548;1099;104169;-74
2021/05/05 07:54:11;;;;;;;;;;;;;;;20.17;42.13;100143.25;125575;1099;104176;-75
2021/05/05 07:56:40;;;;;;;5.53;2.30;;;;;;;20.27;42.90;100147.57;125572;1099;104341;-74
2021/05/05 07:59:10;;;;;;;8.03;2.10;;;;;;;20.38;43.03;100153.70;125552;1098;104168;-75
2021/05/05 08:01:40;;;;;;;3.83;2.10;;;;;;;20.51;40.78;100141.13;125586;1099;104165;-75
2021/05/05 08:04:09;;;;;;;6.00;2.00;;;;;;;20.72;40.87;100141.80;125536;1099;104290;-74
2021/05/05 08:06:38;;;;;;;3.63;1.90;;;;;;;20.82;41.84;100130.14;125556;1099;104171;-75
2021/05/05 08:09:08;;;;;;;3.43;2.10;;;;;;;20.85;41.49;100134.53;125512;1099;104226;-74
2021/05/05 08:11:41;;;;;;;5.90;2.17;;;;;;;20.81;40.14;100133.70;125497;1099;104069;-74
2021/05/05 08:14:17;;;;;;;4.43;2.30;;;;;;;20.84;41.52;100128.33;125509;1099;104230;-74
2021/05/05 08:16:47;;;;;;;3.53;2.40;;;;;;;20.81;41.01;100123.03;125481;1099;104256;-75
2021/05/05 08:19:16;;;;;;;5.07;2.27;;;;;;;20.80;40.48;100126.59;125478;1099;104478;-74
2021/05/05 08:21:46;;;;;;;4.17;2.27;;;;;;;20.96;40.88;100138.84;125431;1099;104341;-75
2021/05/05 08:24:15;;;;;;;6.63;2.60;;;;;;;21.10;41.15;100111.99;124987;1099;104338;-75
2021/05/05 08:26:45;;;;;;;9.27;2.20;;;;;;;21.13;38.56;100106.61;125488;1099;104313;-75
2021/05/05 08:29:16;;;;;;;7.97;2.20;;;;;;;20.98;38.98;100120.16;125534;1099;104863;-76
2021/05/05 08:31:44;;;;;;;3.30;1.90;;;;;;;20.90;39.29;100106.92;125457;1099;104418;-76
2021/05/05 08:34:16;;;;;;;9.97;2.50;;;;;;;21.01;39.32;100104.11;125521;1099;104386;-77
2021/05/05 08:36:44;;;;;;;3.43;2.00;;;;;;;21.18;38.68;100099.42;125550;1099;104328;-76
2021/05/05 08:39:14;;;;;;;8.10;2.20;;;;;;;21.29;38.76;100099.27;125484;1099;104232;-77
2021/05/05 08:41:43;;;;;;;7.20;2.87;;;;;;;21.36;39.36;100094.70;125483;1099;105432;-77
2021/05/05 08:44:13;;;;;;;4.43;2.20;;;;;;;21.40;39.51;100100.91;124971;1099;104197;-76
2021/05/05 08:46:43;;;;;;;10.30;2.50;;;;;;;21.46;38.47;100103.48;125539;1099;104359;-77
2021/05/05 08:49:19;;;;;;;4.67;2.17;;;;;;;21.59;39.19;100112.20;125526;1099;104274;-76
2021/05/05 08:51:48;;;;;;;7.30;2.30;;;;;;;21.74;39.04;100101.28;125454;1099;105452;-77
2021/05/05 08:54:18;;;;;;;6.80;2.10;;;;;;;21.84;37.53;100104.67;125566;1099;104172;-77
2021/05/05 08:56:47;;;;;;;2.73;2.00;;;;;;;21.86;39.15;100119.77;125484;1099;104203;-79
2021/05/05 08:59:18;;;;;;;4.03;2.47;;;;;;;21.80;38.05;100111.86;125535;1099;104174;-79
2021/05/05 09:01:47;;;;;;;3.17;1.87;;;;;;;21.73;38.74;100110.18;124952;1099;104333;-75
2021/05/05 09:04:17;;;;;;;7.83;2.60;;;;;;;21.60;37.50;100108.61;125451;1099;104246;-75
2021/05/05 09:06:48;;;;;;;5.70;2.30;;;;;;;21.40;38.04;100104.44;125460;1099;104236;-77
2021/05/05 09:09:39;;;;;;;5.13;2.33;;;;;;;21.31;38.46;100110.78;125473;1099;104508;-77
2021/05/05 09:12:20;;;;;;;6.00;2.77;;;;;;;21.16;37.54;100106.57;125040;1099;104351;-76
2021/05/05 09:15:00;;;;;;;5.07;2.20;;;;;;;21.11;38.01;100100.39;125069;1099;104235;-76
2021/05/05 09:17:31;;;;;;;4.63;2.50;;;;;;;21.11;38.28;100100.39;125529;1099;104387;-77
2021/05/05 09:20:18;;;;;;;4.13;2.40;;;;;;;21.19;38.31;100103.86;125497;1099;104213;-77
2021/05/05 09:22:50;;;;;;;5.30;2.20;;;;;;;21.24;38.86;100094.89;125740;1099;104223;-75
2021/05/05 09:25:23;;;;;;;8.63;2.47;;;;;;;21.29;38.26;100093.05;124979;1099;104207;-75
2021/05/05 09:28:07;;;;;;;3.97;2.10;;;;;;;21.42;38.20;100077.73;125587;1098;104226;-75
2021/05/05 09:30:36;;;;;;;4.15;2.10;;;;;;;21.60;38.06;100089.91;125485;1099;104411;-75
2021/05/05 09:33:06;;;;;;;4.40;1.90;;;;;;;21.69;38.09;100087.09;125424;1099;119629;-77
2021/05/05 09:35:39;;;;;;;5.77;2.50;;;;;;;21.75;38.14;100064.77;125586;1099;104162;-77
2021/05/05 09:38:10;;;;;;;5.93;2.30;;;;;;;21.80;38.85;100070.89;125558;1099;104206;-77
2021/05/05 09:40:56;;;;;;;5.20;3.27;;;;;;;21.92;38.30;100067.14;125498;1097;104169;-78
2021/05/05 09:43:26;;;;;;;5.90;2.47;;;;;;;21.99;37.54;100068.80;125595;1099;107063;-77
2021/05/05 09:45:58;;;;;;;4.40;2.00;;;;;;;22.08;37.68;100060.63;125578;1099;104320;-79
2021/05/05 09:48:29;;;;;;;6.40;2.13;;;;;;;22.02;37.26;100055.39;125496;1099;104329;-78
2021/05/05 09:51:01;;;;;;;4.77;2.20;;;;;;;22.00;37.93;100051.84;125524;1099;104210;-78
2021/05/05 09:53:32;;;;;;;8.20;2.57;;;;;;;21.95;38.59;100049.27;125546;1099;104163;-76
2021/05/05 09:56:12;;;;;;;4.00;2.40;;;;;;;22.02;38.52;100063.41;125571;1099;104217;-77
2021/05/05 09:58:46;;;;;;;6.67;2.40;;;;;;;22.13;37.91;100052.48;125551;1099;104163;-76
2021/05/05 10:01:21;;;;;;;5.63;2.70;;;;;;;22.21;38.08;100042.56;125552;1099;104220;-76
2021/05/05 10:03:52;;;;;;;4.60;2.35;;;;;;;22.33;37.47;100058.39;125493;1099;104142;-77
2021/05/05 10:06:24;;;;;;;6.60;2.10;;;;;;;22.46;37.70;100036.76;126052;1099;104178;-77
2021/05/05 10:08:54;;;;;;;5.70;1.90;;;;;;;22.52;37.27;100037.50;125578;1099;104301;-76
2021/05/05 10:11:25;;;;;;;5.57;2.13;;;;;;;22.51;37.73;100046.42;125554;1099;104197;-77
2021/05/05 10:13:57;;;;;;;4.47;2.33;;;;;;;22.43;37.82;100038.56;125451;1099;104254;-78
2021/05/05 10:16:27;;;;;;;6.63;2.53;;;;;;;22.47;37.95;100044.75;125474;1099;104181;-77
2021/05/05 10:18:55;;;;;;;6.23;2.27;;;;;;;22.53;37.85;100039.27;125631;1099;104176;-76
2021/05/05 10:21:26;;;;;;;2.77;2.23;;;;;;;22.63;37.35;100025.71;125569;1099;104218;-76
2021/05/05 10:23:57;;;;;;;6.20;2.00;;;;;;;22.60;37.41;100032.00;125563;1099;104168;-75
2021/05/05 10:26:29;;;;;;;7.07;2.47;;;;;;;22.61;37.18;100023.94;125568;1099;104322;-77
2021/05/05 10:32:21;;;;;;;4.27;2.10;;;;;;;22.79;37.59;100019.09;125069;1099;104271;-76
2021/05/05 10:34:55;;;;;;;7.60;2.50;;;;;;;22.91;37.36;100024.17;125527;1099;104172;-75
2021/05/05 10:38:07;;;;;;;5.53;2.30;;;;;;;23.06;37.32;100022.95;125445;1098;104204;-76
2021/05/05 10:44:07;;;;;;;7.07;3.10;;;;;;;23.14;36.17;100022.81;125135;1099;104349;-76
2021/05/05 10:46:56;;;;;;;7.40;2.80;;;;;;;23.21;36.33;100011.02;125450;1099;104226;-76
2021/05/05 10:49:26;;;;;;;6.70;2.43;;;;;;;23.36;36.48;100008.88;125004;1099;104220;-76
2021/05/05 10:54:55;;;;;;;7.80;2.57;;;;;;;23.47;35.50;100018.41;125371;1099;106761;-75
2021/05/05 10:57:27;;;;;;;5.90;2.40;;;;;;;23.51;35.77;100019.20;124983;1099;104374;-76
2021/05/05 11:00:19;;;;;;;5.80;1.97;;;;;;;23.46;34.90;100010.42;124878;1102;104261;-76
2021/05/05 11:02:59;;;;;;;5.70;2.47;;;;;;;23.36;35.32;100017.81;124905;1099;104220;-76
2021/05/05 11:05:44;;;;;;;7.60;2.50;;;;;;;23.32;35.43;100016.11;124911;1099;117078;-77
2021/05/05 11:08:28;;;;;;;7.60;2.50;;;;;;;23.34;35.65;100016.95;124951;1102;104714;-77
2021/05/05 11:10:58;;;;;;;4.45;2.00;;;;;;;23.33;35.41;100009.85;124832;1102;104203;-78
2021/05/05 11:13:41;;;;;;;4.00;2.60;;;;;;;23.30;35.67;100013.47;124831;1102;104219;-77
2021/05/05 11:16:10;;;;;;;5.97;2.00;;;;;;;23.28;34.90;100001.03;124915;1099;104245;-76
2021/05/05 11:18:51;;;;;;;11.37;2.37;;;;;;;23.23;35.20;99998.47;124860;1102;104178;-78
2021/05/05 11:21:41;;;;;;;4.93;2.43;;;;;;;23.17;34.88;99997.75;124811;1099;104163;-78
2021/05/05 11:24:28;;;;;;;11.70;2.37;;;;;;;23.11;35.11;99996.13;124940;1100;104165;-77
2021/05/05 11:26:57;;;;;;;7.50;2.40;;;;;;;23.04;34.82;99995.33;124904;1102;104155;-77
2021/05/05 11:29:38;;;;;;;5.00;2.60;;;;;;;22.96;34.84;99984.81;124937;1102;104348;-77
2021/05/05 11:32:13;;;;;;;4.73;2.53;;;;;;;23.05;35.08;99990.88;124830;1102;104335;-76
2021/05/05 11:34:46;;;;;;;10.53;3.03;;;;;;;23.10;34.73;99972.94;125021;1099;104338;-76
2021/05/05 11:37:20;;;;;;;5.27;2.37;;;;;;;23.11;35.55;99977.39;124985;1102;104533;-77
2021/05/05 11:39:50;;;;;;;5.93;2.30;;;;;;;23.10;35.05;99983.65;125469;1099;104149;-77
2021/05/05 11:42:25;;;;;;;6.83;2.70;;;;;;;23.08;35.03;99969.41;125492;1099;104171;-77
2021/05/05 11:44:55;;;;;;;5.73;2.50;;;;;;;23.07;34.98;99970.31;125499;1097;104238;-76
2021/05/05 11:47:27;;;;;;;3.90;2.30;;;;;;;23.13;35.41;99972.88;125462;1099;104224;-76